createdAt,value
2023-04-21T00:01:54.225Z,96
2023-04-21T00:05:19.569Z,96
2023-04-21T00:08:44.699Z,96
2023-04-21T00:12:09.943Z,96
2023-04-21T00:15:35.162Z,95
2023-04-21T00:19:00.374Z,95
2023-04-21T00:22:25.584Z,95
2023-04-21T00:25:50.818Z,95
2023-04-21T00:29:16.051Z,95
2023-04-21T00:32:41.467Z,95
2023-04-21T00:36:06.539Z,95
2023-04-21T00:39:32.282Z,95
2023-04-21T00:42:57.519Z,95
2023-04-21T00:46:22.833Z,95
2023-04-21T00:49:48.017Z,95
2023-04-21T00:53:13.274Z,95
2023-04-21T00:56:38.496Z,95
2023-04-21T01:00:03.703Z,95
2023-04-21T01:03:29.040Z,95
2023-04-21T01:06:54.180Z,95
2023-04-21T01:10:19.364Z,95
2023-04-21T01:13:44.575Z,94
2023-04-21T01:17:09.791Z,94
2023-04-21T01:20:34.990Z,93
2023-04-21T01:24:00.234Z,92
2023-04-21T01:27:25.492Z,92
2023-04-21T01:30:50.693Z,91
2023-04-21T01:34:15.926Z,91
2023-04-21T01:37:41.166Z,91
2023-04-21T01:41:06.442Z,91
2023-04-21T01:44:31.609Z,91
2023-04-21T01:47:56.852Z,91
2023-04-21T01:51:22.110Z,91
2023-04-21T01:54:47.341Z,90
2023-04-21T01:58:12.627Z,90
2023-04-21T02:01:37.870Z,91
2023-04-21T02:05:03.067Z,91
2023-04-21T02:08:28.290Z,91
2023-04-21T02:11:53.511Z,91
2023-04-21T02:15:18.751Z,91
2023-04-21T02:18:43.965Z,91
2023-04-21T02:22:09.181Z,90
2023-04-21T02:25:34.387Z,90
2023-04-21T02:28:59.586Z,91
2023-04-21T02:32:26.113Z,92
2023-04-21T02:35:50.021Z,90
2023-04-21T02:39:15.199Z,90
2023-04-21T02:42:40.444Z,89
2023-04-21T02:46:05.720Z,89
2023-04-21T02:49:30.963Z,90
2023-04-21T02:52:56.135Z,90
2023-04-21T02:56:21.344Z,90
2023-04-21T02:59:46.575Z,90
2023-04-21T03:03:11.943Z,90
2023-04-21T03:06:37.066Z,91
2023-04-21T03:10:02.266Z,92
2023-04-21T03:13:27.517Z,93
2023-04-21T03:16:52.878Z,93
2023-04-21T03:20:17.992Z,93
2023-04-21T03:23:43.261Z,93
2023-04-21T03:27:10.446Z,92
2023-04-21T03:30:33.726Z,92
2023-04-21T03:33:58.975Z,91
2023-04-21T03:37:24.165Z,90
2023-04-21T03:40:49.392Z,89
2023-04-21T03:44:14.613Z,88
2023-04-21T03:47:39.893Z,89
2023-04-21T03:51:05.092Z,90
2023-04-21T03:54:30.438Z,90
2023-04-21T03:57:55.722Z,90
2023-04-21T04:01:20.935Z,90
2023-04-21T04:04:46.248Z,90
2023-04-21T04:08:11.396Z,89
2023-04-21T04:11:37.465Z,89
2023-04-21T04:15:02.718Z,90
2023-04-21T04:18:28.139Z,93
2023-04-21T04:21:53.351Z,94
2023-04-21T04:25:18.644Z,94
2023-04-21T04:28:43.943Z,95
2023-04-21T04:32:09.209Z,95
2023-04-21T04:35:42.729Z,94
2023-04-21T04:39:09.422Z,94
2023-04-21T04:42:33.144Z,94
2023-04-21T04:45:58.351Z,93
2023-04-21T04:49:24.123Z,93
2023-04-21T04:52:48.824Z,93
2023-04-21T04:56:14.054Z,94
2023-04-21T04:59:39.274Z,94
2023-04-21T05:03:04.576Z,94
2023-04-21T05:06:29.762Z,94
2023-04-21T05:09:55.009Z,94
2023-04-21T05:13:20.269Z,94
2023-04-21T05:16:45.535Z,95
2023-04-21T05:20:10.730Z,95
2023-04-21T05:23:35.972Z,95
2023-04-21T05:27:01.161Z,95
2023-04-21T05:30:26.379Z,95
2023-04-21T05:33:51.614Z,95
2023-04-21T05:37:16.820Z,95
2023-04-21T05:40:42.084Z,95
2023-04-21T05:44:07.335Z,95
2023-04-21T05:47:32.611Z,96
2023-04-21T05:50:57.799Z,96
2023-04-21T05:54:23.049Z,96
2023-04-21T05:57:48.308Z,95
2023-04-21T06:01:13.523Z,94
2023-04-21T06:04:38.902Z,94
2023-04-21T06:08:03.979Z,93
2023-04-21T06:11:29.229Z,92
2023-04-21T06:14:54.461Z,91
2023-04-21T06:18:19.681Z,91
2023-04-21T06:21:44.969Z,90
2023-04-21T06:25:10.177Z,90
2023-04-21T06:28:35.410Z,90
2023-04-21T06:32:00.681Z,89
2023-04-21T06:35:25.876Z,88
2023-04-21T06:38:51.141Z,87
2023-04-21T06:42:16.377Z,86
2023-04-21T06:45:41.606Z,87
2023-04-21T06:49:06.824Z,86
2023-04-21T06:52:32.008Z,86
2023-04-21T06:55:57.243Z,86
2023-04-21T06:59:22.638Z,86
2023-04-21T07:02:47.891Z,86
2023-04-21T07:06:13.067Z,86
2023-04-21T07:09:38.233Z,86
2023-04-21T07:13:03.445Z,87
2023-04-21T07:16:28.670Z,86
2023-04-21T07:19:53.877Z,87
2023-04-21T07:23:19.119Z,88
2023-04-21T07:26:44.349Z,86
2023-04-21T07:30:09.540Z,86
2023-04-21T07:33:34.768Z,85
2023-04-21T07:36:59.942Z,85
2023-04-21T07:40:25.208Z,85
2023-04-21T07:43:51.918Z,84
2023-04-21T07:47:15.637Z,84
2023-04-21T07:50:40.837Z,83
2023-04-21T07:54:06.071Z,84
2023-04-21T07:57:31.372Z,82
2023-04-21T08:00:56.553Z,82
2023-04-21T08:04:22.000Z,81
2023-04-21T08:07:46.979Z,80
2023-04-21T08:11:12.207Z,79
2023-04-21T08:14:37.440Z,80
2023-04-21T08:18:02.711Z,78
2023-04-21T08:21:29.508Z,78
2023-04-21T08:24:53.141Z,79
2023-04-21T08:28:18.384Z,77
2023-04-21T08:31:43.795Z,80
2023-04-21T08:35:08.911Z,75
2023-04-21T08:38:34.112Z,77
2023-04-21T08:41:59.390Z,75
2023-04-21T08:45:24.623Z,77
2023-04-21T08:48:49.895Z,74
2023-04-21T08:52:15.103Z,74
2023-04-21T08:55:40.363Z,76
2023-04-21T08:59:05.573Z,75
2023-04-21T09:02:30.879Z,74
2023-04-21T09:05:56.210Z,73
2023-04-21T09:09:21.390Z,73
2023-04-21T09:12:46.583Z,72
2023-04-21T09:16:11.973Z,72
2023-04-21T09:19:37.190Z,68
2023-04-21T09:23:02.428Z,69
2023-04-21T09:26:27.635Z,68
2023-04-21T09:29:52.879Z,69
2023-04-21T09:33:27.754Z,70
2023-04-21T09:36:43.309Z,69
2023-04-21T09:40:08.587Z,68
2023-04-21T09:43:33.761Z,67
2023-04-21T09:46:58.978Z,70
2023-04-21T09:50:44.672Z,68
2023-04-21T09:53:49.559Z,65
2023-04-21T09:57:14.730Z,62
2023-04-21T10:00:40.063Z,64
2023-04-21T10:04:05.298Z,63
2023-04-21T10:07:30.432Z,64
2023-04-21T10:10:55.616Z,63
2023-04-21T10:14:21.090Z,61
2023-04-21T10:17:46.077Z,63
2023-04-21T10:21:11.309Z,63
2023-04-21T10:24:36.565Z,63
2023-04-21T10:28:01.822Z,63
2023-04-21T10:31:27.318Z,61
2023-04-21T10:34:52.554Z,63
2023-04-21T10:38:17.784Z,61
2023-04-21T10:41:42.989Z,61
2023-04-21T10:45:08.197Z,61
2023-04-21T10:48:33.450Z,63
2023-04-21T10:51:58.664Z,61
2023-04-21T10:55:23.891Z,61
2023-04-21T10:58:49.669Z,60
2023-04-21T11:02:15.095Z,61
2023-04-21T11:05:40.170Z,62
2023-04-21T11:09:05.445Z,63
2023-04-21T11:12:30.654Z,62
2023-04-21T11:15:55.859Z,62
2023-04-21T11:19:21.076Z,61
2023-04-21T11:22:46.332Z,61
2023-04-21T11:26:11.527Z,58
2023-04-21T11:29:36.761Z,59
2023-04-21T11:33:02.020Z,58
2023-04-21T11:36:27.392Z,58
2023-04-21T11:39:52.695Z,56
2023-04-21T11:43:17.915Z,57
2023-04-21T11:46:43.166Z,55
2023-04-21T11:50:08.344Z,58
2023-04-21T11:53:33.629Z,59
2023-04-21T11:57:00.582Z,59
2023-04-21T12:00:24.191Z,55
2023-04-21T12:03:49.603Z,57
2023-04-21T12:07:14.648Z,57
2023-04-21T12:10:39.878Z,55
2023-04-21T12:14:05.104Z,55
2023-04-21T12:17:30.334Z,54
2023-04-21T12:20:55.513Z,55
2023-04-21T12:24:20.762Z,55
2023-04-21T12:27:45.995Z,54
2023-04-21T12:31:11.314Z,56
2023-04-21T12:34:36.427Z,59
2023-04-21T12:38:01.701Z,57
2023-04-21T12:41:26.960Z,55
2023-04-21T12:44:52.167Z,58
2023-04-21T12:48:17.519Z,56
2023-04-21T12:51:42.685Z,59
2023-04-21T12:55:07.923Z,52
2023-04-21T12:58:33.137Z,53
2023-04-21T13:01:58.438Z,56
2023-04-21T13:05:23.684Z,54
2023-04-21T13:08:48.950Z,58
2023-04-21T13:12:14.294Z,59
2023-04-21T13:15:39.544Z,55
2023-04-21T13:19:04.787Z,56
2023-04-21T13:22:30.137Z,56
2023-04-21T13:25:55.339Z,54
2023-04-21T13:29:20.603Z,54
2023-04-21T13:32:45.882Z,55
2023-04-21T13:36:12.784Z,55
2023-04-21T13:39:36.686Z,54
2023-04-21T13:43:01.873Z,56
2023-04-21T13:46:27.150Z,55
2023-04-21T13:49:52.382Z,58
2023-04-21T13:53:19.313Z,56
2023-04-21T13:56:42.880Z,54
2023-04-21T14:00:08.102Z,54
2023-04-21T14:03:33.420Z,54
2023-04-21T14:06:58.543Z,58
2023-04-21T14:10:23.814Z,60
2023-04-21T14:14:04.748Z,55
2023-04-21T14:17:14.308Z,56
2023-04-21T14:20:39.585Z,57
2023-04-21T14:24:04.832Z,58
2023-04-21T14:27:30.066Z,58
2023-04-21T14:30:55.631Z,58
2023-04-21T14:34:20.850Z,57
2023-04-21T14:37:46.098Z,57
2023-04-21T14:41:11.405Z,53
2023-04-21T14:44:36.549Z,57
2023-04-21T14:48:01.837Z,54
2023-04-21T14:51:27.053Z,57
2023-04-21T14:54:52.671Z,55
2023-04-21T14:58:19.174Z,56
2023-04-21T15:01:44.529Z,54
2023-04-21T15:05:09.808Z,55
2023-04-21T15:40:20.684Z,55
2023-04-21T15:43:45.960Z,54
2023-04-21T15:47:11.197Z,54
2023-04-21T15:50:36.559Z,53
2023-04-21T15:54:01.727Z,54
2023-04-21T15:57:27.103Z,55
2023-04-21T16:00:52.433Z,54
2023-04-21T16:04:17.898Z,55
2023-04-21T16:07:42.892Z,55
2023-04-21T16:11:08.152Z,55
2023-04-21T16:14:42.980Z,54
2023-04-21T16:17:58.705Z,54
2023-04-21T16:21:23.966Z,53
2023-04-21T16:24:49.338Z,53
2023-04-21T16:28:14.562Z,55
2023-04-21T16:31:39.895Z,55
2023-04-21T16:35:05.166Z,55
2023-04-21T16:38:30.341Z,54
2023-04-21T16:41:55.612Z,55
2023-04-21T16:45:20.920Z,54
2023-04-21T16:48:46.189Z,52
2023-04-21T16:52:11.424Z,53
2023-04-21T16:55:36.634Z,53
2023-04-21T16:59:01.886Z,54
2023-04-21T17:02:27.248Z,55
2023-04-21T17:05:52.473Z,59
2023-04-21T17:09:17.690Z,58
2023-04-21T17:12:43.251Z,59
2023-04-21T17:16:08.609Z,59
2023-04-21T17:19:33.934Z,61
2023-04-21T17:22:59.314Z,61
2023-04-21T17:26:24.752Z,61
2023-04-21T17:29:50.121Z,61
2023-04-21T17:33:17.097Z,61
2023-04-21T17:36:40.834Z,61
2023-04-21T17:40:06.228Z,60
2023-04-21T17:43:31.572Z,60
2023-04-21T17:46:56.965Z,60
2023-04-21T17:50:22.297Z,61
2023-04-21T17:53:47.728Z,61
2023-04-21T17:57:13.115Z,60
2023-04-21T18:00:38.498Z,61
2023-04-21T18:04:04.049Z,60
2023-04-21T18:07:29.266Z,61
2023-04-21T18:10:54.598Z,62
2023-04-21T18:14:20.062Z,64
2023-04-21T18:17:45.422Z,66
2023-04-21T18:21:10.757Z,67
2023-04-21T18:24:36.270Z,69
2023-04-21T18:28:01.448Z,70
2023-04-21T18:31:26.825Z,70
2023-04-21T18:34:52.156Z,70
2023-04-21T18:38:17.490Z,70
2023-04-21T18:41:42.828Z,71
2023-04-21T18:45:08.168Z,71
2023-04-21T18:48:33.554Z,71
2023-04-21T18:51:58.861Z,72
2023-04-21T18:55:24.157Z,71
2023-04-21T18:58:49.507Z,71
2023-04-21T19:02:14.862Z,70
2023-04-21T19:05:40.395Z,69
2023-04-21T19:09:05.503Z,67
2023-04-21T19:12:30.808Z,66
2023-04-21T19:15:56.112Z,65
2023-04-21T19:19:21.416Z,65
2023-04-21T19:22:46.748Z,65
2023-04-21T19:26:12.034Z,65
2023-04-21T19:29:37.368Z,65
2023-04-21T19:33:02.745Z,65
2023-04-21T19:36:28.035Z,67
2023-04-21T19:39:53.430Z,69
2023-04-21T19:43:18.756Z,70
2023-04-21T19:46:44.156Z,68
2023-04-21T19:50:09.414Z,68
2023-04-21T19:53:34.752Z,69
2023-04-21T19:57:00.129Z,69
2023-04-21T20:00:25.440Z,69
2023-04-21T20:03:51.004Z,69
2023-04-21T20:07:16.317Z,69
2023-04-21T20:10:41.640Z,69
2023-04-21T20:14:07.056Z,68
2023-04-21T20:17:32.424Z,68
2023-04-21T20:20:57.794Z,68
2023-04-21T20:24:23.142Z,68
2023-04-21T20:27:48.603Z,69
2023-04-21T20:31:14.061Z,71
2023-04-21T20:34:39.269Z,72
2023-04-21T20:38:04.486Z,71
2023-04-21T20:41:29.705Z,71
2023-04-21T20:44:54.886Z,70
2023-04-21T20:48:20.134Z,70
2023-04-21T20:51:45.372Z,71
2023-04-21T20:55:10.581Z,71
2023-04-21T20:58:35.784Z,71
2023-04-21T21:02:01.030Z,72
2023-04-21T21:05:26.228Z,72
2023-04-21T21:08:51.418Z,73
2023-04-21T21:12:16.625Z,73
2023-04-21T21:15:41.835Z,73
2023-04-21T21:19:07.046Z,73
2023-04-21T21:22:32.313Z,73
2023-04-21T21:25:57.486Z,73
2023-04-21T21:29:22.676Z,72
2023-04-21T21:32:47.981Z,72
2023-04-21T21:36:13.120Z,71
2023-04-21T21:39:38.514Z,72
2023-04-21T21:43:03.547Z,72
2023-04-21T21:46:28.797Z,72
2023-04-21T21:49:53.953Z,72
2023-04-21T21:53:19.153Z,73
2023-04-21T21:56:44.403Z,72
2023-04-21T22:00:09.576Z,72
2023-04-21T22:03:34.948Z,72
2023-04-21T22:06:59.959Z,73
2023-04-21T22:10:25.169Z,73
2023-04-21T22:13:50.390Z,74
2023-04-21T22:17:15.572Z,74
2023-04-21T22:20:40.790Z,74
2023-04-21T22:24:06.002Z,75
2023-04-21T22:27:31.179Z,75
2023-04-21T22:30:56.427Z,76
2023-04-21T22:34:21.584Z,76
2023-04-21T22:37:46.801Z,76
2023-04-21T22:41:12.007Z,77
2023-04-21T22:44:37.210Z,77
2023-04-21T22:48:02.494Z,76
2023-04-21T22:51:27.648Z,76
2023-04-21T22:54:52.820Z,76
2023-04-21T22:58:18.020Z,76
2023-04-21T23:01:43.312Z,76
2023-04-21T23:05:08.456Z,76
2023-04-21T23:08:33.635Z,77
2023-04-21T23:11:58.863Z,77
2023-04-21T23:15:24.064Z,77
2023-04-21T23:18:49.274Z,77
2023-04-21T23:22:14.524Z,77
2023-04-21T23:25:39.715Z,76
2023-04-21T23:29:04.931Z,76
2023-04-21T23:32:30.168Z,76
2023-04-21T23:35:55.365Z,76
2023-04-21T23:39:20.589Z,76
2023-04-21T23:42:47.323Z,76
2023-04-21T23:46:11.059Z,75
2023-04-21T23:49:36.357Z,75
2023-04-21T23:53:01.421Z,76
2023-04-21T23:56:26.619Z,76
2023-04-21T23:59:51.787Z,76
